Nissho Maru — JD2650 — position and weather

sailwx.info

Track history (hours):
 
Tides and Currents Weather Stations Pressure Air Temp Water Temp Dewpoint Dewpoint Depression Visibility Wind Speed Wind Dir Waves Ship Positions

Nissho Maru

Last reported at 2016-May-28 22:32 UTC. Time now 2016-May-31 04:03 UTC.
Position N 34°45' E 139°43'.

Length 75 m.

Type: Cargo ship. MMSI: 431000572.

Date/timePositionNaut miles runAvg speedWind from/ knotsBaromVisibWave heightAir tempDewpointWater temp
2016-May-28 22:32N 34°45' E 139°43'1411.2
2016-May-28 21:18N 34°53' E 139°57'910.6
2016-May-28 20:30N 34°57' E 140°06'28 9.4
2016-May-28 17:33N 35°15' E 140°31'1311.0
2016-May-28 16:21N 35°25' E 140°42'1311.3
2016-May-28 15:13N 35°36' E 140°51'711.2
2016-May-28 14:33N 35°42' E 140°56'1311.4
2016-May-28 13:24N 35°55' E 140°57'1011.4
2016-May-28 12:29N 36°06' E 140°57'1111.4
2016-May-28 11:31N 36°16' E 140°56'1111.8
2016-May-28 10:34N 36°28' E 140°55'  
2016-May-22 11:28N 37°42' E 141°23'1011.2
2016-May-22 10:34N 37°33' E 141°19'1111.3
2016-May-22 09:33N 37°22' E 141°14'1111.2
2016-May-22 08:33N 37°12' E 141°10'1110.8
2016-May-22 07:33N 37°01' E 141°06'1110.8
2016-May-22 06:34N 36°51' E 141°03'1110.9
2016-May-22 05:33N 36°40' E 141°02'1110.5
2016-May-22 04:33N 36°29' E 141°01'1111.0
2016-May-22 03:33N 36°18' E 140°59'1111.0
2016-May-22 02:33N 36°07' E 140°58'1110.2
2016-May-22 01:31N 35°57' E 140°57'19 9.9
2016-May-21 23:33N 35°38' E 140°52'1010.2
2016-May-21 22:32N 35°29' E 140°45'1110.5
2016-May-21 21:27N 35°20' E 140°36'1010.7
2016-May-21 20:32N 35°13' E 140°28'1311.3
2016-May-21 19:26N 35°04' E 140°17'1011.4
2016-May-21 18:34N 34°58' E 140°07'1611.3
2016-May-21 17:09N 34°50' E 139°51'910.8
2016-May-21 16:21N 34°45' E 139°42'  
2016-May-19 12:09N 33°53' E 135°01'812.4
2016-May-19 11:30N 34°01' E 135°00'1112.1
2016-May-19 10:33N 34°13' E 134°59'1010.3
2016-May-19 09:33N 34°23' E 135°02'1111.2
2016-May-19 08:33N 34°30' E 135°12'1111.5
2016-May-19 07:33N 34°38' E 135°22'  
Track history (hours):
 
Tides and Currents Weather Stations Pressure Air Temp Water Temp Dewpoint Dewpoint Depression Visibility Wind Speed Wind Dir Waves Ship Positions

Nissho Maru

Last reported at 2016-May-28 22:32 UTC. Time now 2016-May-31 04:03 UTC.
Position N 34°45' E 139°43'.

Length 75 m.

Type: Cargo ship. MMSI: 431000572.

Date/timePositionNaut miles runAvg speedWind from/ knotsBaromVisibWave heightAir tempDewpointWater temp
2016-May-28 22:32N 34°45' E 139°43'1411.2
2016-May-28 21:18N 34°53' E 139°57'910.6
2016-May-28 20:30N 34°57' E 140°06'28 9.4
2016-May-28 17:33N 35°15' E 140°31'1311.0
2016-May-28 16:21N 35°25' E 140°42'1311.3
2016-May-28 15:13N 35°36' E 140°51'711.2
2016-May-28 14:33N 35°42' E 140°56'1311.4
2016-May-28 13:24N 35°55' E 140°57'1011.4
2016-May-28 12:29N 36°06' E 140°57'1111.4
2016-May-28 11:31N 36°16' E 140°56'1111.8
2016-May-28 10:34N 36°28' E 140°55'  
2016-May-22 11:28N 37°42' E 141°23'1011.2
2016-May-22 10:34N 37°33' E 141°19'1111.3
2016-May-22 09:33N 37°22' E 141°14'1111.2
2016-May-22 08:33N 37°12' E 141°10'1110.8
2016-May-22 07:33N 37°01' E 141°06'1110.8
2016-May-22 06:34N 36°51' E 141°03'1110.9
2016-May-22 05:33N 36°40' E 141°02'1110.5
2016-May-22 04:33N 36°29' E 141°01'1111.0
2016-May-22 03:33N 36°18' E 140°59'1111.0
2016-May-22 02:33N 36°07' E 140°58'1110.2
2016-May-22 01:31N 35°57' E 140°57'19 9.9
2016-May-21 23:33N 35°38' E 140°52'1010.2
2016-May-21 22:32N 35°29' E 140°45'1110.5
2016-May-21 21:27N 35°20' E 140°36'1010.7
2016-May-21 20:32N 35°13' E 140°28'1311.3
2016-May-21 19:26N 35°04' E 140°17'1011.4
2016-May-21 18:34N 34°58' E 140°07'1611.3
2016-May-21 17:09N 34°50' E 139°51'910.8
2016-May-21 16:21N 34°45' E 139°42'  
2016-May-19 12:09N 33°53' E 135°01'812.4
2016-May-19 11:30N 34°01' E 135°00'1112.1
2016-May-19 10:33N 34°13' E 134°59'1010.3
2016-May-19 09:33N 34°23' E 135°02'1111.2
2016-May-19 08:33N 34°30' E 135°12'1111.5
2016-May-19 07:33N 34°38' E 135°22'  

Dump ship's entire track history